sensor_id;sensor_type;location;lat;lon;timestamp;P1;durP1;ratioP1;P2;durP2;ratioP2
55784;SDS011;41709;52.536;5.688;2022-07-29T00:00:39;1.35;;;0.85;;
55784;SDS011;41709;52.536;5.688;2022-07-29T00:03:05;1.13;;;0.70;;
55784;SDS011;41709;52.536;5.688;2022-07-29T00:05:30;1.40;;;0.77;;
55784;SDS011;41709;52.536;5.688;2022-07-29T00:07:56;1.20;;;0.88;;
55784;SDS011;41709;52.536;5.688;2022-07-29T00:10:22;1.70;;;0.80;;
55784;SDS011;41709;52.536;5.688;2022-07-29T00:12:48;1.17;;;0.60;;
55784;SDS011;41709;52.536;5.688;2022-07-29T00:15:13;2.65;;;0.77;;
55784;SDS011;41709;52.536;5.688;2022-07-29T00:17:39;2.45;;;1.00;;
55784;SDS011;41709;52.536;5.688;2022-07-29T00:20:05;2.25;;;0.70;;
55784;SDS011;41709;52.536;5.688;2022-07-29T00:22:31;1.90;;;1.00;;
55784;SDS011;41709;52.536;5.688;2022-07-29T00:24:56;5.47;;;1.23;;
55784;SDS011;41709;52.536;5.688;2022-07-29T00:27:22;1.52;;;0.73;;
55784;SDS011;41709;52.536;5.688;2022-07-29T00:29:48;3.38;;;1.45;;
55784;SDS011;41709;52.536;5.688;2022-07-29T00:32:13;3.75;;;0.80;;
55784;SDS011;41709;52.536;5.688;2022-07-29T00:34:39;2.75;;;0.80;;
55784;SDS011;41709;52.536;5.688;2022-07-29T00:37:23;5.25;;;0.80;;
55784;SDS011;41709;52.536;5.688;2022-07-29T00:39:49;2.85;;;0.90;;
55784;SDS011;41709;52.536;5.688;2022-07-29T00:42:15;1.70;;;1.08;;
55784;SDS011;41709;52.536;5.688;2022-07-29T00:44:41;4.75;;;2.15;;
55784;SDS011;41709;52.536;5.688;2022-07-29T00:47:08;1.67;;;0.70;;
55784;SDS011;41709;52.536;5.688;2022-07-29T00:49:35;2.42;;;1.05;;
55784;SDS011;41709;52.536;5.688;2022-07-29T00:52:01;1.83;;;0.80;;
55784;SDS011;41709;52.536;5.688;2022-07-29T00:54:28;2.08;;;0.90;;
55784;SDS011;41709;52.536;5.688;2022-07-29T00:56:55;2.17;;;1.10;;
55784;SDS011;41709;52.536;5.688;2022-07-29T00:59:26;1.40;;;0.82;;
55784;SDS011;41709;52.536;5.688;2022-07-29T01:01:52;4.22;;;1.90;;
55784;SDS011;41709;52.536;5.688;2022-07-29T01:04:18;4.80;;;0.80;;
55784;SDS011;41709;52.536;5.688;2022-07-29T01:06:45;1.50;;;0.80;;
55784;SDS011;41709;52.536;5.688;2022-07-29T01:09:11;2.83;;;1.00;;
55784;SDS011;41709;52.536;5.688;2022-07-29T01:11:37;3.15;;;0.95;;
55784;SDS011;41709;52.536;5.688;2022-07-29T01:14:04;2.05;;;0.98;;
55784;SDS011;41709;52.536;5.688;2022-07-29T01:16:32;3.20;;;0.98;;
55784;SDS011;41709;52.536;5.688;2022-07-29T01:30:25;3.58;;;1.00;;
55784;SDS011;41709;52.536;5.688;2022-07-29T01:32:54;1.50;;;0.80;;
55784;SDS011;41709;52.536;5.688;2022-07-29T01:35:25;2.15;;;1.02;;
55784;SDS011;41709;52.536;5.688;2022-07-29T01:40:40;1.38;;;0.80;;
55784;SDS011;41709;52.536;5.688;2022-07-29T01:43:13;1.63;;;0.80;;
55784;SDS011;41709;52.536;5.688;2022-07-29T01:45:47;2.10;;;1.10;;
55784;SDS011;41709;52.536;5.688;2022-07-29T01:51:02;1.20;;;0.90;;
55784;SDS011;41709;52.536;5.688;2022-07-29T01:53:34;3.58;;;0.98;;
55784;SDS011;41709;52.536;5.688;2022-07-29T01:56:03;2.65;;;1.10;;
55784;SDS011;41709;52.536;5.688;2022-07-29T01:58:31;1.27;;;1.10;;
55784;SDS011;41709;52.536;5.688;2022-07-29T02:00:58;1.52;;;1.00;;
55784;SDS011;41709;52.536;5.688;2022-07-29T02:03:26;3.47;;;0.90;;
55784;SDS011;41709;52.536;5.688;2022-07-29T02:05:54;3.10;;;0.90;;
55784;SDS011;41709;52.536;5.688;2022-07-29T02:08:22;2.75;;;0.90;;
55784;SDS011;41709;52.536;5.688;2022-07-29T02:10:50;2.65;;;1.20;;
55784;SDS011;41709;52.536;5.688;2022-07-29T02:13:17;1.75;;;0.80;;
55784;SDS011;41709;52.536;5.688;2022-07-29T02:15:43;3.83;;;1.10;;
55784;SDS011;41709;52.536;5.688;2022-07-29T02:18:11;2.65;;;1.08;;
55784;SDS011;41709;52.536;5.688;2022-07-29T02:20:43;1.00;;;0.77;;
55784;SDS011;41709;52.536;5.688;2022-07-29T02:23:11;2.17;;;1.10;;
55784;SDS011;41709;52.536;5.688;2022-07-29T02:25:39;2.92;;;1.40;;
55784;SDS011;41709;52.536;5.688;2022-07-29T02:28:07;2.60;;;1.00;;
55784;SDS011;41709;52.536;5.688;2022-07-29T02:30:33;1.52;;;0.70;;
55784;SDS011;41709;52.536;5.688;2022-07-29T02:33:03;3.40;;;1.02;;
55784;SDS011;41709;52.536;5.688;2022-07-29T02:35:30;2.33;;;1.20;;
55784;SDS011;41709;52.536;5.688;2022-07-29T02:37:56;2.30;;;1.00;;
55784;SDS011;41709;52.536;5.688;2022-07-29T02:40:40;7.93;;;1.52;;
55784;SDS011;41709;52.536;5.688;2022-07-29T02:43:07;3.92;;;1.02;;
55784;SDS011;41709;52.536;5.688;2022-07-29T02:45:34;1.08;;;0.73;;
55784;SDS011;41709;52.536;5.688;2022-07-29T02:48:06;2.28;;;0.90;;
55784;SDS011;41709;52.536;5.688;2022-07-29T02:50:38;3.20;;;1.20;;
55784;SDS011;41709;52.536;5.688;2022-07-29T02:55:57;3.22;;;2.03;;
55784;SDS011;41709;52.536;5.688;2022-07-29T02:58:43;2.65;;;1.45;;
55784;SDS011;41709;52.536;5.688;2022-07-29T03:01:20;5.65;;;1.17;;
55784;SDS011;41709;52.536;5.688;2022-07-29T03:03:48;2.70;;;1.27;;
55784;SDS011;41709;52.536;5.688;2022-07-29T03:06:16;1.98;;;1.02;;
55784;SDS011;41709;52.536;5.688;2022-07-29T03:08:43;2.92;;;1.25;;
55784;SDS011;41709;52.536;5.688;2022-07-29T03:11:10;1.52;;;1.02;;
55784;SDS011;41709;52.536;5.688;2022-07-29T03:13:37;1.48;;;1.20;;
55784;SDS011;41709;52.536;5.688;2022-07-29T03:16:04;3.25;;;1.15;;
55784;SDS011;41709;52.536;5.688;2022-07-29T03:18:30;5.15;;;1.30;;
55784;SDS011;41709;52.536;5.688;2022-07-29T03:20:56;3.72;;;1.17;;
55784;SDS011;41709;52.536;5.688;2022-07-29T03:23:23;2.53;;;1.30;;
55784;SDS011;41709;52.536;5.688;2022-07-29T03:25:51;1.20;;;1.10;;
55784;SDS011;41709;52.536;5.688;2022-07-29T03:28:17;2.97;;;1.30;;
55784;SDS011;41709;52.536;5.688;2022-07-29T03:30:43;3.17;;;1.40;;
55784;SDS011;41709;52.536;5.688;2022-07-29T03:33:09;2.60;;;1.52;;
55784;SDS011;41709;52.536;5.688;2022-07-29T03:35:35;3.35;;;1.30;;
55784;SDS011;41709;52.536;5.688;2022-07-29T03:38:00;1.65;;;1.35;;
55784;SDS011;41709;52.536;5.688;2022-07-29T03:40:32;3.05;;;1.30;;
55784;SDS011;41709;52.536;5.688;2022-07-29T03:43:03;2.22;;;1.58;;
55784;SDS011;41709;52.536;5.688;2022-07-29T03:45:30;5.70;;;1.45;;
55784;SDS011;41709;52.536;5.688;2022-07-29T03:48:05;3.42;;;1.25;;
55784;SDS011;41709;52.536;5.688;2022-07-29T03:50:33;2.85;;;1.10;;
55784;SDS011;41709;52.536;5.688;2022-07-29T03:53:00;2.17;;;1.25;;
55784;SDS011;41709;52.536;5.688;2022-07-29T03:55:26;2.35;;;1.23;;
55784;SDS011;41709;52.536;5.688;2022-07-29T03:57:55;4.90;;;1.45;;
55784;SDS011;41709;52.536;5.688;2022-07-29T04:00:22;4.65;;;1.30;;
55784;SDS011;41709;52.536;5.688;2022-07-29T04:02:50;3.13;;;1.10;;
55784;SDS011;41709;52.536;5.688;2022-07-29T04:05:16;2.95;;;1.05;;
55784;SDS011;41709;52.536;5.688;2022-07-29T04:07:45;3.80;;;1.10;;
55784;SDS011;41709;52.536;5.688;2022-07-29T04:10:12;4.32;;;1.02;;
55784;SDS011;41709;52.536;5.688;2022-07-29T04:12:37;4.53;;;1.48;;
55784;SDS011;41709;52.536;5.688;2022-07-29T04:15:03;6.43;;;1.33;;
55784;SDS011;41709;52.536;5.688;2022-07-29T04:17:29;2.78;;;1.00;;
55784;SDS011;41709;52.536;5.688;2022-07-29T04:19:55;4.30;;;1.20;;
55784;SDS011;41709;52.536;5.688;2022-07-29T04:22:20;1.00;;;0.90;;
55784;SDS011;41709;52.536;5.688;2022-07-29T04:24:46;2.72;;;0.90;;
55784;SDS011;41709;52.536;5.688;2022-07-29T04:27:11;4.88;;;1.30;;
55784;SDS011;41709;52.536;5.688;2022-07-29T04:29:37;5.95;;;2.17;;
55784;SDS011;41709;52.536;5.688;2022-07-29T04:32:03;3.05;;;0.95;;
55784;SDS011;41709;52.536;5.688;2022-07-29T04:34:28;4.75;;;0.82;;
55784;SDS011;41709;52.536;5.688;2022-07-29T04:36:54;2.35;;;1.10;;
55784;SDS011;41709;52.536;5.688;2022-07-29T04:39:20;5.35;;;1.25;;
55784;SDS011;41709;52.536;5.688;2022-07-29T04:41:46;2.97;;;0.93;;
55784;SDS011;41709;52.536;5.688;2022-07-29T04:44:12;3.35;;;1.10;;
55784;SDS011;41709;52.536;5.688;2022-07-29T04:46:37;2.72;;;0.90;;
55784;SDS011;41709;52.536;5.688;2022-07-29T04:49:03;5.13;;;1.23;;
55784;SDS011;41709;52.536;5.688;2022-07-29T04:51:29;1.75;;;1.25;;
55784;SDS011;41709;52.536;5.688;2022-07-29T04:53:55;3.88;;;1.08;;
55784;SDS011;41709;52.536;5.688;2022-07-29T04:56:20;4.20;;;1.25;;
55784;SDS011;41709;52.536;5.688;2022-07-29T04:58:46;1.13;;;1.02;;
55784;SDS011;41709;52.536;5.688;2022-07-29T05:01:12;16.45;;;2.83;;
55784;SDS011;41709;52.536;5.688;2022-07-29T05:03:39;2.40;;;0.90;;
55784;SDS011;41709;52.536;5.688;2022-07-29T05:06:05;3.88;;;0.85;;
55784;SDS011;41709;52.536;5.688;2022-07-29T05:08:31;4.20;;;1.20;;
55784;SDS011;41709;52.536;5.688;2022-07-29T05:10:57;1.60;;;1.10;;
55784;SDS011;41709;52.536;5.688;2022-07-29T05:13:22;3.97;;;0.93;;
55784;SDS011;41709;52.536;5.688;2022-07-29T05:15:48;4.35;;;1.92;;
55784;SDS011;41709;52.536;5.688;2022-07-29T05:18:14;3.13;;;1.00;;
55784;SDS011;41709;52.536;5.688;2022-07-29T05:20:40;2.60;;;1.00;;
55784;SDS011;41709;52.536;5.688;2022-07-29T05:23:06;6.30;;;0.95;;
55784;SDS011;41709;52.536;5.688;2022-07-29T05:25:31;6.63;;;1.25;;
55784;SDS011;41709;52.536;5.688;2022-07-29T05:27:57;3.10;;;1.27;;
55784;SDS011;41709;52.536;5.688;2022-07-29T05:30:23;4.07;;;1.20;;
55784;SDS011;41709;52.536;5.688;2022-07-29T05:32:48;3.03;;;1.23;;
55784;SDS011;41709;52.536;5.688;2022-07-29T05:35:14;2.80;;;1.10;;
55784;SDS011;41709;52.536;5.688;2022-07-29T05:37:40;3.42;;;1.10;;
55784;SDS011;41709;52.536;5.688;2022-07-29T05:40:06;4.00;;;1.00;;
55784;SDS011;41709;52.536;5.688;2022-07-29T05:42:33;2.55;;;0.90;;
55784;SDS011;41709;52.536;5.688;2022-07-29T05:44:59;4.68;;;0.80;;
55784;SDS011;41709;52.536;5.688;2022-07-29T05:47:24;2.97;;;1.00;;
55784;SDS011;41709;52.536;5.688;2022-07-29T05:49:50;4.05;;;1.30;;
55784;SDS011;41709;52.536;5.688;2022-07-29T05:52:16;2.78;;;0.90;;
55784;SDS011;41709;52.536;5.688;2022-07-29T05:54:41;2.20;;;1.20;;
55784;SDS011;41709;52.536;5.688;2022-07-29T05:57:07;1.42;;;1.02;;
55784;SDS011;41709;52.536;5.688;2022-07-29T05:59:39;3.58;;;1.40;;
55784;SDS011;41709;52.536;5.688;2022-07-29T06:02:05;1.85;;;0.82;;
55784;SDS011;41709;52.536;5.688;2022-07-29T06:04:31;4.10;;;1.30;;
55784;SDS011;41709;52.536;5.688;2022-07-29T06:06:57;6.82;;;1.27;;
55784;SDS011;41709;52.536;5.688;2022-07-29T06:09:22;6.53;;;1.67;;
55784;SDS011;41709;52.536;5.688;2022-07-29T06:11:48;1.63;;;1.20;;
55784;SDS011;41709;52.536;5.688;2022-07-29T06:14:14;3.60;;;1.00;;
55784;SDS011;41709;52.536;5.688;2022-07-29T06:16:39;4.43;;;1.30;;
55784;SDS011;41709;52.536;5.688;2022-07-29T06:19:05;2.60;;;1.13;;
55784;SDS011;41709;52.536;5.688;2022-07-29T06:21:30;1.63;;;0.95;;
55784;SDS011;41709;52.536;5.688;2022-07-29T06:23:56;6.35;;;1.30;;
55784;SDS011;41709;52.536;5.688;2022-07-29T06:26:21;1.80;;;1.05;;
55784;SDS011;41709;52.536;5.688;2022-07-29T06:28:47;4.63;;;1.00;;
55784;SDS011;41709;52.536;5.688;2022-07-29T06:31:13;3.20;;;0.98;;
55784;SDS011;41709;52.536;5.688;2022-07-29T06:33:39;5.53;;;1.52;;
55784;SDS011;41709;52.536;5.688;2022-07-29T06:36:04;3.47;;;1.38;;
55784;SDS011;41709;52.536;5.688;2022-07-29T06:38:30;2.38;;;1.30;;
55784;SDS011;41709;52.536;5.688;2022-07-29T06:40:57;3.97;;;0.93;;
55784;SDS011;41709;52.536;5.688;2022-07-29T06:43:27;3.58;;;1.17;;
55784;SDS011;41709;52.536;5.688;2022-07-29T06:46:02;3.30;;;1.83;;
55784;SDS011;41709;52.536;5.688;2022-07-29T06:48:30;2.67;;;1.42;;
55784;SDS011;41709;52.536;5.688;2022-07-29T06:50:55;4.30;;;1.40;;
55784;SDS011;41709;52.536;5.688;2022-07-29T06:53:21;2.20;;;1.20;;
55784;SDS011;41709;52.536;5.688;2022-07-29T06:55:47;2.38;;;1.30;;
55784;SDS011;41709;52.536;5.688;2022-07-29T06:58:13;4.93;;;1.35;;
55784;SDS011;41709;52.536;5.688;2022-07-29T07:00:40;2.63;;;1.50;;
55784;SDS011;41709;52.536;5.688;2022-07-29T07:03:06;3.70;;;1.20;;
55784;SDS011;41709;52.536;5.688;2022-07-29T07:05:32;5.43;;;2.22;;
55784;SDS011;41709;52.536;5.688;2022-07-29T07:07:58;5.25;;;2.13;;
55784;SDS011;41709;52.536;5.688;2022-07-29T07:10:23;3.28;;;1.67;;
55784;SDS011;41709;52.536;5.688;2022-07-29T07:12:49;3.00;;;1.67;;
55784;SDS011;41709;52.536;5.688;2022-07-29T07:15:14;5.15;;;1.40;;
55784;SDS011;41709;52.536;5.688;2022-07-29T07:17:40;4.88;;;1.67;;
55784;SDS011;41709;52.536;5.688;2022-07-29T07:20:05;4.53;;;1.35;;
55784;SDS011;41709;52.536;5.688;2022-07-29T07:22:31;4.18;;;1.98;;
55784;SDS011;41709;52.536;5.688;2022-07-29T07:24:57;2.22;;;1.20;;
55784;SDS011;41709;52.536;5.688;2022-07-29T07:27:22;5.32;;;1.90;;
55784;SDS011;41709;52.536;5.688;2022-07-29T07:29:48;2.50;;;1.60;;
55784;SDS011;41709;52.536;5.688;2022-07-29T07:32:14;7.25;;;1.80;;
55784;SDS011;41709;52.536;5.688;2022-07-29T07:34:41;4.07;;;1.83;;
55784;SDS011;41709;52.536;5.688;2022-07-29T07:37:07;6.53;;;1.30;;
55784;SDS011;41709;52.536;5.688;2022-07-29T07:39:33;3.65;;;1.38;;
55784;SDS011;41709;52.536;5.688;2022-07-29T07:41:59;5.85;;;1.60;;
55784;SDS011;41709;52.536;5.688;2022-07-29T07:44:25;6.50;;;1.85;;
55784;SDS011;41709;52.536;5.688;2022-07-29T07:46:51;4.53;;;1.85;;
55784;SDS011;41709;52.536;5.688;2022-07-29T07:49:17;4.00;;;1.50;;
55784;SDS011;41709;52.536;5.688;2022-07-29T07:51:43;2.20;;;1.40;;
55784;SDS011;41709;52.536;5.688;2022-07-29T07:54:08;2.13;;;1.42;;
55784;SDS011;41709;52.536;5.688;2022-07-29T07:56:34;5.75;;;1.65;;
55784;SDS011;41709;52.536;5.688;2022-07-29T07:58:59;3.50;;;2.08;;
55784;SDS011;41709;52.536;5.688;2022-07-29T08:01:25;4.75;;;1.70;;
55784;SDS011;41709;52.536;5.688;2022-07-29T08:03:50;7.30;;;1.80;;
55784;SDS011;41709;52.536;5.688;2022-07-29T08:06:16;2.53;;;1.67;;
55784;SDS011;41709;52.536;5.688;2022-07-29T08:08:41;2.85;;;1.75;;
55784;SDS011;41709;52.536;5.688;2022-07-29T08:11:07;4.10;;;1.80;;
55784;SDS011;41709;52.536;5.688;2022-07-29T08:13:33;6.55;;;1.95;;
55784;SDS011;41709;52.536;5.688;2022-07-29T08:15:58;4.70;;;1.80;;
55784;SDS011;41709;52.536;5.688;2022-07-29T08:18:36;3.83;;;1.73;;
55784;SDS011;41709;52.536;5.688;2022-07-29T08:21:01;2.38;;;1.80;;
55784;SDS011;41709;52.536;5.688;2022-07-29T08:23:27;4.00;;;1.60;;
55784;SDS011;41709;52.536;5.688;2022-07-29T08:25:59;2.63;;;1.58;;
55784;SDS011;41709;52.536;5.688;2022-07-29T08:28:25;4.60;;;1.90;;
55784;SDS011;41709;52.536;5.688;2022-07-29T08:30:51;5.68;;;1.70;;
55784;SDS011;41709;52.536;5.688;2022-07-29T08:33:17;2.33;;;1.77;;
55784;SDS011;41709;52.536;5.688;2022-07-29T08:35:43;2.20;;;1.58;;
55784;SDS011;41709;52.536;5.688;2022-07-29T08:38:08;4.03;;;1.98;;
55784;SDS011;41709;52.536;5.688;2022-07-29T08:40:35;4.90;;;2.10;;
55784;SDS011;41709;52.536;5.688;2022-07-29T08:43:04;2.30;;;1.75;;
55784;SDS011;41709;52.536;5.688;2022-07-29T08:45:35;2.20;;;1.80;;
55784;SDS011;41709;52.536;5.688;2022-07-29T08:48:11;4.32;;;1.92;;
55784;SDS011;41709;52.536;5.688;2022-07-29T08:50:38;3.65;;;1.90;;
55784;SDS011;41709;52.536;5.688;2022-07-29T08:53:04;2.60;;;2.10;;
55784;SDS011;41709;52.536;5.688;2022-07-29T08:55:32;5.72;;;2.67;;
55784;SDS011;41709;52.536;5.688;2022-07-29T08:57:59;3.47;;;2.38;;
55784;SDS011;41709;52.536;5.688;2022-07-29T09:00:25;3.00;;;1.67;;
55784;SDS011;41709;52.536;5.688;2022-07-29T09:02:55;3.28;;;1.80;;
55784;SDS011;41709;52.536;5.688;2022-07-29T09:05:22;4.97;;;2.15;;
55784;SDS011;41709;52.536;5.688;2022-07-29T09:07:50;3.50;;;1.95;;
55784;SDS011;41709;52.536;5.688;2022-07-29T09:10:16;3.63;;;1.88;;
55784;SDS011;41709;52.536;5.688;2022-07-29T09:12:42;5.70;;;1.67;;
55784;SDS011;41709;52.536;5.688;2022-07-29T09:15:08;3.05;;;2.05;;
55784;SDS011;41709;52.536;5.688;2022-07-29T09:17:45;4.07;;;1.70;;
55784;SDS011;41709;52.536;5.688;2022-07-29T09:20:17;2.47;;;1.98;;
55784;SDS011;41709;52.536;5.688;2022-07-29T09:22:44;7.30;;;1.92;;
55784;SDS011;41709;52.536;5.688;2022-07-29T09:25:14;6.07;;;2.15;;
55784;SDS011;41709;52.536;5.688;2022-07-29T09:28:04;3.30;;;1.85;;
55784;SDS011;41709;52.536;5.688;2022-07-29T09:30:50;2.60;;;1.90;;
55784;SDS011;41709;52.536;5.688;2022-07-29T09:33:17;3.55;;;1.95;;
55784;SDS011;41709;52.536;5.688;2022-07-29T09:35:42;4.82;;;1.90;;
55784;SDS011;41709;52.536;5.688;2022-07-29T09:38:12;7.82;;;3.00;;
55784;SDS011;41709;52.536;5.688;2022-07-29T09:40:38;2.22;;;1.73;;
55784;SDS011;41709;52.536;5.688;2022-07-29T09:43:11;3.88;;;1.80;;
55784;SDS011;41709;52.536;5.688;2022-07-29T09:45:38;4.97;;;2.47;;
55784;SDS011;41709;52.536;5.688;2022-07-29T09:48:16;5.72;;;1.95;;
55784;SDS011;41709;52.536;5.688;2022-07-29T09:50:44;4.20;;;1.92;;
55784;SDS011;41709;52.536;5.688;2022-07-29T09:53:11;4.10;;;2.85;;
55784;SDS011;41709;52.536;5.688;2022-07-29T09:55:53;5.45;;;2.45;;
55784;SDS011;41709;52.536;5.688;2022-07-29T09:58:20;2.83;;;2.33;;
55784;SDS011;41709;52.536;5.688;2022-07-29T10:00:47;5.13;;;2.38;;
55784;SDS011;41709;52.536;5.688;2022-07-29T10:03:14;4.95;;;2.40;;
55784;SDS011;41709;52.536;5.688;2022-07-29T10:05:40;5.80;;;2.45;;
55784;SDS011;41709;52.536;5.688;2022-07-29T10:08:07;5.97;;;2.20;;
55784;SDS011;41709;52.536;5.688;2022-07-29T10:10:34;3.60;;;2.10;;
55784;SDS011;41709;52.536;5.688;2022-07-29T10:13:12;3.95;;;2.50;;
55784;SDS011;41709;52.536;5.688;2022-07-29T10:15:41;8.00;;;2.42;;
55784;SDS011;41709;52.536;5.688;2022-07-29T10:18:12;2.92;;;2.22;;
55784;SDS011;41709;52.536;5.688;2022-07-29T10:20:38;6.93;;;3.05;;
55784;SDS011;41709;52.536;5.688;2022-07-29T10:23:05;7.47;;;3.70;;
55784;SDS011;41709;52.536;5.688;2022-07-29T10:25:31;5.65;;;3.35;;
55784;SDS011;41709;52.536;5.688;2022-07-29T10:27:57;5.47;;;3.60;;
55784;SDS011;41709;52.536;5.688;2022-07-29T10:30:23;5.78;;;3.47;;
55784;SDS011;41709;52.536;5.688;2022-07-29T10:46:34;7.05;;;2.95;;
55784;SDS011;41709;52.536;5.688;2022-07-29T10:51:56;4.72;;;2.58;;
55784;SDS011;41709;52.536;5.688;2022-07-29T10:54:41;5.93;;;2.85;;
55784;SDS011;41709;52.536;5.688;2022-07-29T11:07:36;7.82;;;3.63;;
55784;SDS011;41709;52.536;5.688;2022-07-29T11:23:16;9.90;;;3.50;;
55784;SDS011;41709;52.536;5.688;2022-07-29T11:25:42;17.90;;;3.95;;
55784;SDS011;41709;52.536;5.688;2022-07-29T11:28:08;6.45;;;3.20;;
55784;SDS011;41709;52.536;5.688;2022-07-29T11:33:30;7.82;;;3.63;;
55784;SDS011;41709;52.536;5.688;2022-07-29T11:36:09;6.63;;;3.10;;
55784;SDS011;41709;52.536;5.688;2022-07-29T11:38:39;4.47;;;2.58;;
55784;SDS011;41709;52.536;5.688;2022-07-29T11:41:21;6.25;;;2.63;;
55784;SDS011;41709;52.536;5.688;2022-07-29T11:49:21;9.13;;;3.38;;
55784;SDS011;41709;52.536;5.688;2022-07-29T11:51:51;4.78;;;2.10;;
55784;SDS011;41709;52.536;5.688;2022-07-29T11:54:21;3.47;;;2.10;;
55784;SDS011;41709;52.536;5.688;2022-07-29T11:56:52;4.20;;;2.35;;
55784;SDS011;41709;52.536;5.688;2022-07-29T11:59:17;4.82;;;2.65;;
55784;SDS011;41709;52.536;5.688;2022-07-29T12:01:58;5.25;;;2.72;;
55784;SDS011;41709;52.536;5.688;2022-07-29T12:04:25;4.80;;;2.25;;
55784;SDS011;41709;52.536;5.688;2022-07-29T12:09:20;3.22;;;2.38;;
55784;SDS011;41709;52.536;5.688;2022-07-29T12:11:46;6.80;;;2.15;;
55784;SDS011;41709;52.536;5.688;2022-07-29T12:14:28;4.38;;;2.67;;
55784;SDS011;41709;52.536;5.688;2022-07-29T12:16:55;7.72;;;2.55;;
55784;SDS011;41709;52.536;5.688;2022-07-29T12:19:21;7.07;;;3.10;;
55784;SDS011;41709;52.536;5.688;2022-07-29T12:21:48;5.03;;;2.38;;
55784;SDS011;41709;52.536;5.688;2022-07-29T12:24:19;4.43;;;2.50;;
55784;SDS011;41709;52.536;5.688;2022-07-29T12:26:52;6.65;;;2.15;;
55784;SDS011;41709;52.536;5.688;2022-07-29T12:29:22;6.65;;;2.08;;
55784;SDS011;41709;52.536;5.688;2022-07-29T12:31:52;3.42;;;1.88;;
55784;SDS011;41709;52.536;5.688;2022-07-29T12:34:22;4.15;;;2.63;;
55784;SDS011;41709;52.536;5.688;2022-07-29T12:36:51;5.57;;;2.95;;
55784;SDS011;41709;52.536;5.688;2022-07-29T12:39:17;5.13;;;3.38;;
55784;SDS011;41709;52.536;5.688;2022-07-29T12:41:43;4.93;;;2.53;;
55784;SDS011;41709;52.536;5.688;2022-07-29T12:44:10;5.05;;;2.83;;
55784;SDS011;41709;52.536;5.688;2022-07-29T12:46:36;7.05;;;3.65;;
55784;SDS011;41709;52.536;5.688;2022-07-29T12:49:02;4.78;;;2.97;;
55784;SDS011;41709;52.536;5.688;2022-07-29T12:51:28;5.47;;;3.20;;
55784;SDS011;41709;52.536;5.688;2022-07-29T12:56:41;4.50;;;2.47;;
55784;SDS011;41709;52.536;5.688;2022-07-29T12:59:21;4.55;;;2.60;;
55784;SDS011;41709;52.536;5.688;2022-07-29T13:01:48;3.90;;;2.47;;
55784;SDS011;41709;52.536;5.688;2022-07-29T13:06:57;5.68;;;2.92;;
55784;SDS011;41709;52.536;5.688;2022-07-29T13:09:39;3.78;;;2.50;;
55784;SDS011;41709;52.536;5.688;2022-07-29T13:12:06;4.57;;;2.53;;
55784;SDS011;41709;52.536;5.688;2022-07-29T13:14:34;3.65;;;2.30;;
55784;SDS011;41709;52.536;5.688;2022-07-29T13:17:05;9.02;;;3.28;;
55784;SDS011;41709;52.536;5.688;2022-07-29T13:19:40;5.45;;;3.20;;
55784;SDS011;41709;52.536;5.688;2022-07-29T13:22:07;4.35;;;2.67;;
55784;SDS011;41709;52.536;5.688;2022-07-29T13:24:44;3.95;;;2.78;;
55784;SDS011;41709;52.536;5.688;2022-07-29T13:27:15;5.38;;;3.30;;
55784;SDS011;41709;52.536;5.688;2022-07-29T13:29:44;4.97;;;2.85;;
55784;SDS011;41709;52.536;5.688;2022-07-29T13:32:10;5.43;;;2.90;;
55784;SDS011;41709;52.536;5.688;2022-07-29T13:34:37;7.15;;;3.55;;
55784;SDS011;41709;52.536;5.688;2022-07-29T13:37:02;4.53;;;3.28;;
55784;SDS011;41709;52.536;5.688;2022-07-29T13:39:28;5.43;;;3.00;;
55784;SDS011;41709;52.536;5.688;2022-07-29T13:41:53;10.73;;;4.10;;
55784;SDS011;41709;52.536;5.688;2022-07-29T13:44:19;6.80;;;3.60;;
55784;SDS011;41709;52.536;5.688;2022-07-29T13:46:44;6.57;;;3.80;;
55784;SDS011;41709;52.536;5.688;2022-07-29T13:49:10;5.03;;;3.72;;
55784;SDS011;41709;52.536;5.688;2022-07-29T13:51:36;3.97;;;3.13;;
55784;SDS011;41709;52.536;5.688;2022-07-29T13:54:05;5.57;;;2.70;;
55784;SDS011;41709;52.536;5.688;2022-07-29T13:56:30;4.32;;;2.70;;
55784;SDS011;41709;52.536;5.688;2022-07-29T13:58:56;8.27;;;3.10;;
55784;SDS011;41709;52.536;5.688;2022-07-29T14:01:22;4.35;;;2.88;;
55784;SDS011;41709;52.536;5.688;2022-07-29T14:03:48;5.05;;;3.10;;
55784;SDS011;41709;52.536;5.688;2022-07-29T14:06:16;5.50;;;3.40;;
55784;SDS011;41709;52.536;5.688;2022-07-29T14:08:44;6.35;;;3.30;;
55784;SDS011;41709;52.536;5.688;2022-07-29T14:11:10;4.70;;;3.20;;
55784;SDS011;41709;52.536;5.688;2022-07-29T14:13:35;8.20;;;3.35;;
55784;SDS011;41709;52.536;5.688;2022-07-29T14:16:01;6.50;;;3.22;;
55784;SDS011;41709;52.536;5.688;2022-07-29T14:18:26;7.63;;;3.22;;
55784;SDS011;41709;52.536;5.688;2022-07-29T14:20:52;7.80;;;3.33;;
55784;SDS011;41709;52.536;5.688;2022-07-29T14:23:18;5.63;;;2.95;;
55784;SDS011;41709;52.536;5.688;2022-07-29T14:25:43;7.90;;;3.53;;
55784;SDS011;41709;52.536;5.688;2022-07-29T14:28:09;5.13;;;2.65;;
55784;SDS011;41709;52.536;5.688;2022-07-29T14:30:36;4.28;;;2.30;;
55784;SDS011;41709;52.536;5.688;2022-07-29T14:33:02;6.00;;;2.80;;
55784;SDS011;41709;52.536;5.688;2022-07-29T14:35:28;3.05;;;2.13;;
55784;SDS011;41709;52.536;5.688;2022-07-29T14:37:53;9.60;;;2.67;;
55784;SDS011;41709;52.536;5.688;2022-07-29T14:40:19;8.05;;;2.80;;
55784;SDS011;41709;52.536;5.688;2022-07-29T14:42:44;6.43;;;3.00;;
55784;SDS011;41709;52.536;5.688;2022-07-29T14:45:10;3.08;;;2.38;;
55784;SDS011;41709;52.536;5.688;2022-07-29T14:47:36;5.75;;;2.75;;
55784;SDS011;41709;52.536;5.688;2022-07-29T14:50:03;7.32;;;2.78;;
55784;SDS011;41709;52.536;5.688;2022-07-29T14:52:29;4.30;;;2.55;;
55784;SDS011;41709;52.536;5.688;2022-07-29T14:54:55;6.63;;;2.88;;
55784;SDS011;41709;52.536;5.688;2022-07-29T14:57:21;6.00;;;3.22;;
55784;SDS011;41709;52.536;5.688;2022-07-29T14:59:46;9.73;;;2.60;;
55784;SDS011;41709;52.536;5.688;2022-07-29T15:02:12;4.20;;;2.53;;
55784;SDS011;41709;52.536;5.688;2022-07-29T15:04:37;6.60;;;2.72;;
55784;SDS011;41709;52.536;5.688;2022-07-29T15:07:03;5.60;;;2.80;;
55784;SDS011;41709;52.536;5.688;2022-07-29T15:09:29;6.40;;;2.55;;
55784;SDS011;41709;52.536;5.688;2022-07-29T15:11:54;4.10;;;3.13;;
55784;SDS011;41709;52.536;5.688;2022-07-29T15:14:20;7.82;;;2.67;;
55784;SDS011;41709;52.536;5.688;2022-07-29T15:16:46;11.60;;;3.83;;
55784;SDS011;41709;52.536;5.688;2022-07-29T15:19:11;6.82;;;2.95;;
55784;SDS011;41709;52.536;5.688;2022-07-29T15:21:37;6.78;;;3.38;;
55784;SDS011;41709;52.536;5.688;2022-07-29T15:26:32;3.92;;;2.58;;
55784;SDS011;41709;52.536;5.688;2022-07-29T15:28:57;5.97;;;2.83;;
55784;SDS011;41709;52.536;5.688;2022-07-29T15:31:24;7.78;;;2.78;;
55784;SDS011;41709;52.536;5.688;2022-07-29T15:33:49;8.30;;;3.30;;
55784;SDS011;41709;52.536;5.688;2022-07-29T15:36:15;5.05;;;2.88;;
55784;SDS011;41709;52.536;5.688;2022-07-29T15:38:40;4.88;;;3.33;;
55784;SDS011;41709;52.536;5.688;2022-07-29T15:41:06;9.07;;;3.67;;
55784;SDS011;41709;52.536;5.688;2022-07-29T15:43:32;6.80;;;4.03;;
55784;SDS011;41709;52.536;5.688;2022-07-29T15:46:00;8.50;;;3.75;;
55784;SDS011;41709;52.536;5.688;2022-07-29T15:48:45;6.60;;;4.00;;
55784;SDS011;41709;52.536;5.688;2022-07-29T15:51:10;7.05;;;4.05;;
55784;SDS011;41709;52.536;5.688;2022-07-29T15:53:36;5.45;;;3.55;;
55784;SDS011;41709;52.536;5.688;2022-07-29T15:56:02;6.57;;;3.83;;
55784;SDS011;41709;52.536;5.688;2022-07-29T15:58:28;4.13;;;3.30;;
55784;SDS011;41709;52.536;5.688;2022-07-29T16:00:54;7.57;;;4.35;;
55784;SDS011;41709;52.536;5.688;2022-07-29T16:03:19;11.77;;;3.80;;
55784;SDS011;41709;52.536;5.688;2022-07-29T16:05:46;5.95;;;4.18;;
55784;SDS011;41709;52.536;5.688;2022-07-29T16:08:12;8.05;;;2.88;;